createdAt,value
2023-01-26T00:02:21.058Z,0.75
2023-01-26T00:04:51.675Z,0.31
2023-01-26T00:07:19.740Z,0.45
2023-01-26T00:09:47.738Z,0.48
2023-01-26T00:12:15.760Z,1.13
2023-01-26T00:14:51.861Z,0.47
2023-01-26T00:17:28.283Z,0.43
2023-01-26T00:19:57.398Z,0.34
2023-01-26T00:22:26.180Z,0.15
2023-01-26T00:24:56.434Z,0.16
2023-01-26T00:27:24.881Z,0.02
2023-01-26T00:29:53.184Z,0.26
2023-01-26T00:32:22.575Z,0.21
2023-01-26T00:34:50.810Z,0.21
2023-01-26T00:37:18.879Z,0.18
2023-01-26T00:39:46.947Z,0.21
2023-01-26T00:42:15.933Z,0.31
2023-01-26T00:44:44.169Z,0.30
2023-01-26T00:47:12.967Z,0.33
2023-01-26T00:49:42.727Z,0.23
2023-01-26T00:52:11.171Z,0.21
2023-01-26T00:54:39.197Z,0.08
2023-01-26T00:57:07.728Z,0.14
2023-01-26T00:59:37.038Z,-0.05
2023-01-26T01:02:05.159Z,0.08
2023-01-26T01:04:33.497Z,-0.06
2023-01-26T01:07:03.343Z,0.04
2023-01-26T01:09:31.437Z,0.16
2023-01-26T01:11:59.591Z,0.04
2023-01-26T01:14:28.738Z,0.20
2023-01-26T01:16:59.807Z,0.08
2023-01-26T01:19:28.550Z,0.11
2023-01-26T01:21:59.115Z,0.12
2023-01-26T01:24:28.468Z,0.02
2023-01-26T01:26:56.508Z,0.13
2023-01-26T01:29:24.931Z,0.09
2023-01-26T01:31:52.961Z,0.08
2023-01-26T01:34:24.545Z,0.22
2023-01-26T01:36:52.690Z,0.16
2023-01-26T01:39:20.879Z,0.22
2023-01-26T01:41:50.243Z,0.39
2023-01-26T01:44:19.620Z,0.33
2023-01-26T01:46:50.467Z,0.20
2023-01-26T01:49:24.174Z,0.19
2023-01-26T01:51:55.276Z,-0.03
2023-01-26T01:54:25.546Z,0.11
2023-01-26T01:56:57.513Z,0.54
2023-01-26T01:59:25.910Z,0.39
2023-01-26T02:01:56.894Z,0.02
2023-01-26T02:04:25.590Z,-0.14
2023-01-26T02:06:55.036Z,-0.04
2023-01-26T02:09:45.415Z,0.02
2023-01-26T02:12:15.984Z,-0.18
2023-01-26T02:14:44.172Z,-0.04
2023-01-26T02:17:12.209Z,-0.18
2023-01-26T02:19:43.849Z,-0.14
2023-01-26T02:22:16.300Z,-0.13
2023-01-26T02:24:44.482Z,-0.22
2023-01-26T02:27:14.074Z,-0.11
2023-01-26T02:29:42.681Z,-0.16
2023-01-26T02:32:11.047Z,-0.10
2023-01-26T02:34:39.246Z,-0.19
2023-01-26T02:37:07.410Z,-0.22
2023-01-26T02:39:44.459Z,-0.34
2023-01-26T02:42:33.832Z,-0.32
2023-01-26T02:45:02.021Z,-0.31
2023-01-26T02:47:31.960Z,-0.17
2023-01-26T02:50:00.420Z,-0.06
2023-01-26T02:52:31.198Z,-0.25
2023-01-26T02:55:21.685Z,-0.08
2023-01-26T02:57:54.243Z,-0.07
2023-01-26T03:00:24.516Z,-0.09
2023-01-26T03:03:03.054Z,-0.07
2023-01-26T03:05:33.424Z,-0.23
2023-01-26T03:08:02.213Z,-0.18
2023-01-26T03:10:36.059Z,-0.10
2023-01-26T03:13:06.005Z,-0.08
2023-01-26T03:15:48.309Z,-0.10
2023-01-26T03:18:35.310Z,-0.24
2023-01-26T03:21:22.032Z,-0.27
2023-01-26T03:24:07.899Z,0.01
2023-01-26T03:26:55.181Z,0.69
2023-01-26T03:29:26.635Z,0.18
2023-01-26T03:31:59.220Z,-0.10
2023-01-26T03:34:29.784Z,0.37
2023-01-26T03:37:00.353Z,0.51
2023-01-26T03:39:53.050Z,0.45
2023-01-26T03:42:38.801Z,0.65
2023-01-26T03:45:26.777Z,0.68
2023-01-26T03:48:21.176Z,0.58
2023-01-26T03:51:06.522Z,0.77
2023-01-26T03:53:52.675Z,0.47
2023-01-26T03:56:22.720Z,0.30
2023-01-26T03:58:54.227Z,0.38
2023-01-26T04:01:28.113Z,0.32
2023-01-26T04:04:17.499Z,0.20
2023-01-26T04:07:07.260Z,-0.02
2023-01-26T04:09:37.625Z,0.09
2023-01-26T04:12:05.967Z,0.19
2023-01-26T04:14:56.675Z,0.57
2023-01-26T04:17:46.369Z,0.27
2023-01-26T04:20:33.079Z,-0.36
2023-01-26T04:23:02.112Z,-0.12
2023-01-26T04:25:34.392Z,-0.23
2023-01-26T04:28:05.051Z,-0.08
2023-01-26T04:30:33.693Z,-0.11
2023-01-26T04:33:03.330Z,0.13
2023-01-26T04:35:31.489Z,0.34
2023-01-26T04:38:00.292Z,0.07
2023-01-26T04:40:28.440Z,0.36
2023-01-26T04:42:56.720Z,-0.44
2023-01-26T04:45:24.925Z,-0.19
2023-01-26T04:47:53.064Z,-0.19
2023-01-26T04:50:22.940Z,-0.49
2023-01-26T04:52:51.717Z,-0.63
2023-01-26T04:55:21.028Z,-0.28
2023-01-26T04:57:51.324Z,-0.06
2023-01-26T05:00:20.463Z,-0.11
2023-01-26T05:02:49.976Z,0.05
2023-01-26T05:05:18.396Z,0.14
2023-01-26T05:07:50.307Z,0.00
2023-01-26T05:10:18.628Z,0.34
2023-01-26T05:13:17.311Z,-0.45
2023-01-26T05:16:14.429Z,-0.42
2023-01-26T05:18:54.459Z,-0.47
2023-01-26T05:21:41.352Z,-0.49
2023-01-26T05:24:12.080Z,-0.46
2023-01-26T05:27:22.375Z,-0.60
2023-01-26T05:29:57.389Z,-0.51
2023-01-26T05:32:26.933Z,-0.27
2023-01-26T05:34:55.218Z,0.04
2023-01-26T05:37:24.888Z,-0.35
2023-01-26T05:39:54.298Z,-0.41
2023-01-26T05:42:22.598Z,-0.60
2023-01-26T05:45:09.472Z,-0.41
2023-01-26T05:47:39.713Z,0.33
2023-01-26T05:50:08.481Z,-0.35
2023-01-26T05:52:36.790Z,-0.44
2023-01-26T05:55:07.478Z,-0.50
2023-01-26T05:57:36.429Z,0.67
2023-01-26T06:00:07.704Z,0.04
2023-01-26T06:02:42.255Z,0.39
2023-01-26T06:05:14.161Z,-0.01
2023-01-26T06:07:45.230Z,-0.05
2023-01-26T06:10:21.732Z,0.29
2023-01-26T06:13:12.512Z,0.54
2023-01-26T06:15:48.736Z,0.33
2023-01-26T06:18:17.066Z,-0.07
2023-01-26T06:20:51.547Z,0.07
2023-01-26T06:23:19.695Z,0.54
2023-01-26T06:25:51.824Z,0.28
2023-01-26T06:28:20.526Z,0.73
2023-01-26T06:30:48.885Z,0.54
2023-01-26T06:33:17.101Z,0.56
2023-01-26T06:35:45.292Z,-0.08
2023-01-26T06:38:15.691Z,-0.08
2023-01-26T06:40:43.916Z,0.72
2023-01-26T06:43:16.863Z,0.21
2023-01-26T06:45:49.674Z,0.06
2023-01-26T06:48:18.213Z,0.42
2023-01-26T06:50:47.148Z,0.55
2023-01-26T06:53:30.216Z,0.28
2023-01-26T06:56:23.294Z,0.41
2023-01-26T06:59:05.905Z,0.93
2023-01-26T07:01:52.174Z,0.62
2023-01-26T07:04:20.358Z,0.81
2023-01-26T07:06:48.519Z,0.55
2023-01-26T07:09:16.571Z,-0.03
2023-01-26T07:11:45.032Z,0.11
2023-01-26T07:14:14.596Z,-0.25
2023-01-26T07:16:42.902Z,0.16
2023-01-26T07:19:10.919Z,0.61
2023-01-26T07:21:39.724Z,0.65
2023-01-26T07:24:08.368Z,0.85
2023-01-26T07:26:37.065Z,0.25
2023-01-26T07:29:22.488Z,0.28
2023-01-26T07:32:16.031Z,0.85
2023-01-26T07:34:44.878Z,0.12
2023-01-26T07:37:13.337Z,-0.03
2023-01-26T07:39:41.430Z,0.17
2023-01-26T07:42:11.625Z,0.89
2023-01-26T07:44:48.422Z,0.48
2023-01-26T07:47:18.417Z,-0.17
2023-01-26T07:49:47.169Z,-0.30
2023-01-26T07:52:17.763Z,-0.25
2023-01-26T07:54:45.883Z,-0.36
2023-01-26T07:57:14.017Z,-0.22
2023-01-26T07:59:44.269Z,-0.14
2023-01-26T08:02:12.672Z,0.40
2023-01-26T08:04:42.209Z,-0.09
2023-01-26T08:07:12.756Z,0.13
2023-01-26T08:09:41.147Z,-0.27
2023-01-26T08:12:09.313Z,-0.15
2023-01-26T08:14:46.449Z,0.03
2023-01-26T08:17:17.303Z,0.50
2023-01-26T08:19:47.524Z,0.29
2023-01-26T08:22:15.718Z,-0.07
2023-01-26T08:24:44.178Z,0.29
2023-01-26T08:27:12.283Z,-0.25
2023-01-26T08:29:40.577Z,-0.09
2023-01-26T08:32:09.566Z,-0.13
2023-01-26T08:34:37.883Z,-0.16
2023-01-26T08:37:09.429Z,-0.02
2023-01-26T08:39:37.477Z,0.03
2023-01-26T08:42:05.567Z,-0.05
2023-01-26T08:44:33.594Z,-0.09
2023-01-26T08:47:01.589Z,0.09
2023-01-26T08:49:31.962Z,-0.20
2023-01-26T08:51:59.981Z,-0.22
2023-01-26T08:54:29.703Z,0.10
2023-01-26T08:56:58.887Z,-0.16
2023-01-26T08:59:26.999Z,0.94
2023-01-26T09:01:55.845Z,0.87
2023-01-26T09:04:23.910Z,1.11
2023-01-26T09:06:52.014Z,0.51
2023-01-26T09:09:20.065Z,0.37
2023-01-26T09:11:49.477Z,1.03
2023-01-26T09:14:17.606Z,0.83
2023-01-26T09:16:45.697Z,1.07
2023-01-26T09:19:13.869Z,1.00
2023-01-26T09:21:41.936Z,1.07
2023-01-26T09:24:10.088Z,1.03
2023-01-26T09:26:38.205Z,0.86
2023-01-26T09:29:25.120Z,0.95
2023-01-26T09:31:53.300Z,1.07
2023-01-26T09:34:21.387Z,0.96
2023-01-26T09:36:49.469Z,1.11
2023-01-26T09:39:20.001Z,0.89
2023-01-26T09:41:57.207Z,0.76
2023-01-26T09:44:28.110Z,0.89
2023-01-26T09:47:02.680Z,0.63
2023-01-26T09:49:38.138Z,0.54
2023-01-26T09:52:08.677Z,0.72
2023-01-26T09:54:39.462Z,0.37
2023-01-26T09:57:13.307Z,-0.01
2023-01-26T09:59:44.832Z,0.64
2023-01-26T10:02:21.934Z,0.68
2023-01-26T10:04:52.865Z,0.84
2023-01-26T10:07:21.238Z,0.53
2023-01-26T10:09:53.517Z,0.33
2023-01-26T10:12:24.261Z,0.79
2023-01-26T10:14:57.156Z,0.46
2023-01-26T10:17:29.506Z,-0.23
2023-01-26T10:20:03.692Z,0.40
2023-01-26T10:22:34.740Z,0.22
2023-01-26T10:25:03.711Z,-0.05
2023-01-26T10:27:31.775Z,-0.25
2023-01-26T10:30:01.173Z,-0.10
2023-01-26T10:32:29.391Z,0.48
2023-01-26T10:34:59.628Z,0.75
2023-01-26T10:37:29.600Z,0.02
2023-01-26T10:40:01.228Z,-0.15
2023-01-26T10:42:30.162Z,0.03
2023-01-26T10:45:10.010Z,-0.10
2023-01-26T10:47:39.548Z,0.01
2023-01-26T10:50:21.202Z,0.42
2023-01-26T10:52:59.533Z,0.32
2023-01-26T10:55:27.664Z,0.00
2023-01-26T10:57:55.811Z,0.01
2023-01-26T11:00:25.108Z,0.08
2023-01-26T11:02:55.840Z,-0.02
2023-01-26T11:05:24.481Z,0.23
2023-01-26T11:08:00.456Z,0.06
2023-01-26T11:10:32.386Z,0.65
2023-01-26T11:13:14.429Z,0.61
2023-01-26T11:15:44.111Z,0.69
2023-01-26T11:18:20.684Z,0.44
2023-01-26T11:20:51.244Z,-0.13
2023-01-26T11:23:27.937Z,-0.15
2023-01-26T11:26:04.412Z,0.18
2023-01-26T11:28:36.036Z,0.02
2023-01-26T11:31:15.813Z,-0.07
2023-01-26T11:33:51.784Z,-0.01
2023-01-26T11:36:25.898Z,-0.29
2023-01-26T11:38:58.634Z,0.03
2023-01-26T11:41:34.468Z,-0.25
2023-01-26T11:44:13.057Z,0.48
2023-01-26T11:46:47.555Z,-0.04
2023-01-26T11:49:25.124Z,0.20
2023-01-26T11:52:00.779Z,0.38
2023-01-26T11:54:39.733Z,0.28
2023-01-26T11:57:14.340Z,0.45
2023-01-26T11:59:45.248Z,0.66
2023-01-26T12:02:27.406Z,0.84
2023-01-26T12:04:58.764Z,-0.20
2023-01-26T12:07:30.532Z,-0.09
2023-01-26T12:10:01.899Z,-0.25
2023-01-26T12:12:36.930Z,-0.19
2023-01-26T12:15:13.250Z,-0.14
2023-01-26T12:17:46.911Z,-0.29
2023-01-26T12:20:26.989Z,-0.21
2023-01-26T12:22:56.552Z,0.03
2023-01-26T12:25:31.325Z,-0.39
2023-01-26T12:28:06.597Z,-0.10
2023-01-26T12:30:38.562Z,-0.16
2023-01-26T12:33:07.400Z,-0.32
2023-01-26T12:35:50.066Z,-0.36
2023-01-26T12:38:20.517Z,-0.28
2023-01-26T12:40:54.259Z,-0.32
2023-01-26T12:43:26.381Z,-0.13
2023-01-26T12:45:56.334Z,-0.18
2023-01-26T12:48:28.538Z,-0.07
2023-01-26T12:51:00.317Z,-0.19
2023-01-26T12:53:32.410Z,-0.21
2023-01-26T12:56:06.290Z,-0.21
2023-01-26T12:58:36.446Z,-0.07
2023-01-26T13:01:06.117Z,-0.22
2023-01-26T13:03:38.469Z,-0.27
2023-01-26T13:06:20.767Z,-0.18
2023-01-26T13:08:51.443Z,0.55
2023-01-26T13:11:37.956Z,0.53
2023-01-26T13:14:24.653Z,0.65
2023-01-26T13:16:52.734Z,0.81
2023-01-26T13:19:36.353Z,1.21
2023-01-26T13:22:28.384Z,1.04
2023-01-26T13:24:59.231Z,1.13
2023-01-26T13:27:32.040Z,0.30
2023-01-26T13:30:00.297Z,0.48
2023-01-26T13:32:55.338Z,0.66
2023-01-26T13:35:24.542Z,1.41
2023-01-26T13:37:57.735Z,1.53
2023-01-26T13:40:31.253Z,1.45
2023-01-26T13:43:07.643Z,1.00
2023-01-26T13:45:45.077Z,0.79
2023-01-26T13:48:15.544Z,1.01
2023-01-26T13:50:44.257Z,1.28
2023-01-26T13:53:31.132Z,0.81
2023-01-26T13:56:02.037Z,0.30
2023-01-26T13:58:30.096Z,0.49
2023-01-26T14:01:02.043Z,0.39
2023-01-26T14:03:31.022Z,0.23
2023-01-26T14:06:01.614Z,0.36
2023-01-26T14:08:30.859Z,0.41
2023-01-26T14:10:59.328Z,0.00
2023-01-26T14:13:33.973Z,0.25
2023-01-26T14:16:06.612Z,0.37
2023-01-26T14:18:34.940Z,0.26
2023-01-26T14:21:06.684Z,0.60
2023-01-26T14:23:38.362Z,0.32
2023-01-26T14:26:07.640Z,0.09
2023-01-26T14:28:38.116Z,0.19
2023-01-26T14:31:11.012Z,0.56
2023-01-26T14:33:39.120Z,0.09
2023-01-26T14:36:07.941Z,0.31
2023-01-26T14:38:43.683Z,0.20
2023-01-26T14:41:17.927Z,0.23
2023-01-26T14:43:47.600Z,0.18
2023-01-26T14:46:18.392Z,0.05
2023-01-26T14:48:49.278Z,-0.09
2023-01-26T14:51:21.232Z,-0.09
2023-01-26T14:53:50.477Z,-0.10
2023-01-26T14:56:20.250Z,-0.01
2023-01-26T14:58:52.517Z,0.26
2023-01-26T15:01:21.690Z,0.05
2023-01-26T15:03:51.456Z,0.04
2023-01-26T15:06:21.282Z,-0.29
2023-01-26T15:08:57.297Z,0.37
2023-01-26T15:11:44.660Z,-0.01
2023-01-26T15:14:28.266Z,-0.04
2023-01-26T15:16:56.613Z,-0.11
2023-01-26T15:19:25.379Z,-0.13
2023-01-26T15:21:53.590Z,-0.38
2023-01-26T15:24:21.736Z,-0.31
2023-01-26T15:26:50.007Z,-0.53
2023-01-26T15:29:22.039Z,-0.09
2023-01-26T15:31:54.279Z,0.27
2023-01-26T15:34:30.734Z,0.09
2023-01-26T15:36:59.075Z,-0.21
2023-01-26T15:39:27.368Z,0.12
2023-01-26T15:42:14.541Z,-0.28
2023-01-26T15:44:42.936Z,-0.18
2023-01-26T15:47:13.460Z,0.35
2023-01-26T15:49:42.167Z,-0.24
2023-01-26T15:52:13.039Z,-0.30
2023-01-26T15:54:41.097Z,-0.65
2023-01-26T15:57:11.230Z,-0.43
2023-01-26T15:59:39.492Z,-0.24
2023-01-26T16:02:13.995Z,-0.58
2023-01-26T16:04:42.239Z,-0.34
2023-01-26T16:07:12.783Z,-0.51
2023-01-26T16:09:40.995Z,-0.73
2023-01-26T16:12:15.001Z,-0.59
2023-01-26T16:14:47.582Z,-0.54
2023-01-26T16:17:18.161Z,-0.68
2023-01-26T16:19:46.242Z,-0.53
2023-01-26T16:22:14.502Z,-0.35
2023-01-26T16:24:42.799Z,-0.39
2023-01-26T16:27:11.043Z,-0.35
2023-01-26T16:29:39.159Z,-0.59
2023-01-26T16:32:28.298Z,-0.37
2023-01-26T16:35:00.058Z,-0.43
2023-01-26T16:37:28.139Z,-0.43
2023-01-26T16:39:56.159Z,-0.44
2023-01-26T16:42:24.403Z,-0.21
2023-01-26T16:44:52.503Z,-0.33
2023-01-26T16:47:20.553Z,-0.69
2023-01-26T16:49:48.694Z,-0.76
2023-01-26T16:52:18.173Z,-0.72
2023-01-26T16:54:48.277Z,-0.76
2023-01-26T16:57:16.468Z,-0.59
2023-01-26T16:59:44.470Z,-0.56
2023-01-26T17:02:20.485Z,-0.76
2023-01-26T17:04:48.565Z,-0.73
2023-01-26T17:07:18.457Z,-0.45
2023-01-26T17:09:46.499Z,-0.35
2023-01-26T17:12:14.519Z,-0.42
2023-01-26T17:14:42.560Z,-0.46
2023-01-26T17:17:10.761Z,-0.45
2023-01-26T17:19:38.851Z,-0.36
2023-01-26T17:22:07.646Z,-0.64
2023-01-26T17:24:37.036Z,-0.37
2023-01-26T17:27:05.352Z,-0.45
2023-01-26T17:29:35.494Z,-0.63
2023-01-26T17:32:06.045Z,-0.70
2023-01-26T17:34:34.179Z,-0.33
2023-01-26T17:37:02.238Z,-0.45
2023-01-26T17:39:30.281Z,-0.56
2023-01-26T17:42:00.430Z,-0.28
2023-01-26T17:44:28.455Z,-0.80
2023-01-26T17:46:56.460Z,-0.55
2023-01-26T17:49:24.981Z,-0.43
2023-01-26T17:51:53.200Z,-0.20
2023-01-26T17:54:21.330Z,-0.25
2023-01-26T17:56:49.622Z,-0.40
2023-01-26T17:59:19.162Z,-0.43
2023-01-26T18:01:47.239Z,-0.71
2023-01-26T18:04:15.261Z,-0.75
2023-01-26T18:06:43.291Z,-0.60
2023-01-26T18:09:11.317Z,-0.47
2023-01-26T18:11:39.357Z,-0.43
2023-01-26T18:14:07.448Z,-0.41
2023-01-26T18:16:36.926Z,-0.52
2023-01-26T18:19:05.328Z,-0.51
2023-01-26T18:21:34.763Z,-0.50
2023-01-26T18:24:03.788Z,-0.43
2023-01-26T18:26:34.577Z,-0.33
2023-01-26T18:29:02.768Z,-0.65
2023-01-26T18:31:33.925Z,-0.09
2023-01-26T18:34:04.800Z,-0.20
2023-01-26T18:36:33.531Z,-0.57
2023-01-26T18:39:02.511Z,-0.29
2023-01-26T18:41:31.320Z,-0.51
2023-01-26T18:43:59.934Z,-0.05
2023-01-26T18:46:30.748Z,-0.62
2023-01-26T18:49:00.772Z,-0.64
2023-01-26T18:51:31.352Z,-0.62
2023-01-26T18:53:59.732Z,-0.61
2023-01-26T18:56:27.852Z,-0.72
2023-01-26T18:58:56.019Z,-0.50
2023-01-26T19:01:26.797Z,-0.41
2023-01-26T19:03:55.981Z,-0.70
2023-01-26T19:06:25.108Z,-0.54
2023-01-26T19:08:58.667Z,-0.38
2023-01-26T19:11:28.164Z,-0.64
2023-01-26T19:13:56.257Z,-0.67
2023-01-26T19:16:24.973Z,-0.52
2023-01-26T19:18:54.162Z,-0.47
2023-01-26T19:21:24.522Z,-0.46
2023-01-26T19:23:55.130Z,-0.47
2023-01-26T19:26:25.479Z,-0.72
2023-01-26T19:28:54.515Z,-0.25
2023-01-26T19:31:23.117Z,-0.58
2023-01-26T19:33:51.512Z,-0.70
2023-01-26T19:36:22.428Z,-0.43
2023-01-26T19:38:50.980Z,-0.77
2023-01-26T19:41:21.204Z,-0.77
2023-01-26T19:43:50.401Z,-0.95
2023-01-26T19:46:19.107Z,-0.80
2023-01-26T19:48:47.276Z,-0.74
2023-01-26T19:51:16.545Z,-0.85
2023-01-26T19:53:45.526Z,-0.72
2023-01-26T19:56:14.561Z,-1.00
2023-01-26T19:58:44.546Z,-0.81
2023-01-26T20:01:13.508Z,-0.60
2023-01-26T20:03:42.023Z,-0.29
2023-01-26T20:06:14.802Z,-0.65
2023-01-26T20:08:42.847Z,-0.53
2023-01-26T20:11:11.471Z,-0.53
2023-01-26T20:13:39.920Z,-0.42
2023-01-26T20:16:09.960Z,-0.69
2023-01-26T20:18:38.407Z,-0.63
2023-01-26T20:21:08.524Z,-0.76
2023-01-26T20:23:45.654Z,-0.79
2023-01-26T20:26:21.842Z,-0.71
2023-01-26T20:28:49.975Z,-0.86
2023-01-26T20:31:21.115Z,-0.72
2023-01-26T20:33:50.010Z,-0.70
2023-01-26T20:36:21.547Z,-0.94
2023-01-26T20:38:49.931Z,-0.44
2023-01-26T20:41:19.238Z,-0.23
2023-01-26T20:44:02.728Z,-0.78
2023-01-26T20:46:32.923Z,-0.54
2023-01-26T20:49:01.667Z,0.00
2023-01-26T20:51:30.666Z,-0.25
2023-01-26T20:53:58.814Z,-0.45
2023-01-26T20:56:27.600Z,-0.49
2023-01-26T20:58:56.400Z,-0.45
2023-01-26T21:01:24.939Z,-0.69
2023-01-26T21:03:54.688Z,-1.36
2023-01-26T21:06:26.088Z,-0.93
2023-01-26T21:08:55.236Z,-0.78
2023-01-26T21:11:24.279Z,-0.53
2023-01-26T21:13:52.456Z,-1.07
2023-01-26T21:16:20.645Z,-0.71
2023-01-26T21:18:49.392Z,-0.62
2023-01-26T21:21:19.118Z,-0.70
2023-01-26T21:23:47.382Z,-0.29
2023-01-26T21:26:16.444Z,-0.93
2023-01-26T21:28:44.502Z,-0.68
2023-01-26T21:31:14.586Z,-0.92
2023-01-26T21:33:44.909Z,-1.44
2023-01-26T21:36:13.997Z,-0.29
2023-01-26T21:38:47.991Z,-1.28
2023-01-26T21:41:34.399Z,-1.21
2023-01-26T21:44:03.324Z,-0.99
2023-01-26T21:46:31.561Z,-0.54
2023-01-26T21:49:00.007Z,-0.61
2023-01-26T21:51:45.330Z,-1.28
2023-01-26T21:54:15.235Z,-0.67
2023-01-26T21:56:43.410Z,-0.80
2023-01-26T22:02:38.386Z,-1.36
2023-01-26T22:05:07.430Z,-1.49
2023-01-26T22:07:35.476Z,-1.62
2023-01-26T22:10:05.963Z,-0.90
2023-01-26T22:12:34.162Z,-1.18
2023-01-26T22:15:02.273Z,-1.44
2023-01-26T22:17:30.396Z,-1.32
2023-01-26T22:19:59.893Z,-1.27
2023-01-26T22:22:27.947Z,-1.35
2023-01-26T22:24:55.932Z,-0.80
2023-01-26T22:27:24.221Z,-0.96
2023-01-26T22:29:52.360Z,-0.94
2023-01-26T22:32:23.104Z,-0.71
2023-01-26T22:34:51.244Z,-1.43
2023-01-26T22:37:20.642Z,-1.08
2023-01-26T22:39:49.061Z,-0.97
2023-01-26T22:42:19.044Z,-0.92
2023-01-26T22:44:49.516Z,-0.65
2023-01-26T22:47:17.588Z,-1.35
2023-01-26T22:49:45.616Z,-0.88
2023-01-26T22:52:13.692Z,-0.59
2023-01-26T22:54:43.089Z,-0.27
2023-01-26T22:57:11.150Z,-0.13
2023-01-26T22:59:39.290Z,0.01
2023-01-26T23:02:07.369Z,-0.23
2023-01-26T23:04:35.407Z,-0.47
2023-01-26T23:07:03.433Z,-0.49
2023-01-26T23:09:31.700Z,-0.92
2023-01-26T23:12:02.515Z,-0.15
2023-01-26T23:14:30.917Z,-0.49
2023-01-26T23:16:59.115Z,-1.17
2023-01-26T23:19:27.126Z,-0.36
2023-01-26T23:21:55.192Z,-0.93
2023-01-26T23:24:23.402Z,-1.00
2023-01-26T23:26:51.460Z,-0.26
2023-01-26T23:29:23.229Z,-0.46
2023-01-26T23:31:51.394Z,-0.48
2023-01-26T23:34:19.480Z,-0.52
2023-01-26T23:36:47.790Z,-0.81
2023-01-26T23:39:15.911Z,-0.33
2023-01-26T23:41:43.903Z,-0.28
2023-01-26T23:44:13.154Z,-0.57
2023-01-26T23:46:43.800Z,-0.81
2023-01-26T23:49:11.891Z,0.30
2023-01-26T23:51:40.089Z,-0.59
2023-01-26T23:54:08.657Z,-0.47
2023-01-26T23:56:36.779Z,-0.53
2023-01-26T23:59:04.872Z,-0.74
